| Date | Time | Temp. (oF) | Dew Point (oF) | Rel. Hum. (%) | Press. (in.) | Wind Dir. | Wind Speed (mph) | Hourly Rainfall (in.) |
|
|---|---|---|---|---|---|---|---|---|---|
| 1 | 01/16 | 00:00 | 14 | 12 | 92 | 30.60 | SSW | 0 | 0.00 |
| 2 | 01/15 | 23:00 | 15 | 12 | 88 | 30.59 | NNE | 0 | 0.00 |
| 3 | 01/15 | 22:00 | 16 | 10 | 80 | 30.60 | SW | 1 | 0.00 |
| 4 | 01/15 | 21:00 | 17 | 8 | 70 | 30.58 | NE | 0 | 0.00 |
| 5 | 01/15 | 20:00 | 19 | 7 | 59 | 30.57 | ESE | 0 | 0.00 |
| 6 | 01/15 | 19:00 | 21 | 6 | 53 | 30.54 | NE | 1 | 0.00 |
| 7 | 01/15 | 18:00 | 23 | 6 | 48 | 30.52 | ENE | 2 | 0.00 |
| 8 | 01/15 | 17:00 | 24 | 5 | 44 | 30.49 | N | 5 | 0.00 |
| 9 | 01/15 | 16:00 | 25 | 4 | 41 | 30.45 | W | 9 | 0.00 |
| 10 | 01/15 | 15:00 | 26 | 5 | 41 | 30.43 | NW | 5 | 0.00 |
| 11 | 01/15 | 14:00 | 25 | 5 | 43 | 30.41 | NNE | 4 | 0.00 |
| 12 | 01/15 | 13:00 | 23 | 3 | 42 | 30.44 | NNE | 8 | 0.00 |
| 13 | 01/15 | 12:00 | 22 | 4 | 46 | 30.45 | WNW | 13 | 0.00 |
| 14 | 01/15 | 11:00 | 19 | 4 | 53 | 30.47 | NNE | 12 | 0.00 |
| 15 | 01/15 | 10:00 | 17 | 4 | 57 | 30.45 | N | 7 | 0.00 |
| 16 | 01/15 | 09:00 | 16 | 4 | 61 | 30.43 | NE | 8 | 0.00 |
| 17 | 01/15 | 08:00 | 15 | 6 | 67 | 30.38 | NE | 7 | 0.00 |
| 18 | 01/15 | 07:00 | 17 | 7 | 65 | 30.34 | N | 6 | 0.00 |
| 19 | 01/15 | 06:00 | 20 | 13 | 76 | 30.29 | NNE | 6 | 0.00 |
| 20 | 01/15 | 05:00 | 22 | 18 | 87 | 30.24 | NNE | 8 | 0.00 |
| 21 | 01/15 | 04:00 | 23 | 15 | 74 | 30.20 | NNE | 3 | 0.00 |
| 22 | 01/15 | 03:00 | 23 | 16 | 76 | 30.19 | WSW | 4 | 0.00 |
| 23 | 01/15 | 02:00 | 24 | 16 | 73 | 30.18 | WSW | 3 | 0.00 |
| 24 | 01/15 | 01:00 | 24 | 16 | 74 | 30.16 | SW | 4 | 0.00 |